Pacific Pilot IV — CZ3537 — position and weather

sailwx.info

Track history (hours):
 
Tides and Currents Weather Stations Pressure Air Temp Water Temp Dewpoint Dewpoint Depression Visibility Wind Speed Wind Dir Waves Ship Positions

Pacific Pilot IV

Last reported at 2018-Jun-23 00:00 UTC. Time now 2018-Jun-23 00:25 UTC.
Position N 54°13' W 130°28'.

Length 20 m.

Type: Pilot. MMSI: 316006722.

Date/timePositionNaut miles runAvg speedWind from/ knotsBaromVisibWave heightAir tempDewpointWater temp
2018-Jun-23 00:00N 54°13' W 130°28'3 5.9
2018-Jun-22 23:30N 54°13' W 130°23'5 9.7
2018-Jun-22 23:00N 54°18' W 130°21'0 0.2
2018-Jun-22 22:26N 54°18' W 130°21'0 0.0
2018-Jun-22 22:00N 54°18' W 130°21'0 0.0
2018-Jun-22 21:30N 54°18' W 130°21'0 0.0
2018-Jun-22 21:00N 54°18' W 130°21'0 0.0
2018-Jun-22 20:30N 54°18' W 130°21'0 0.0
2018-Jun-22 20:00N 54°18' W 130°21'0 0.0
2018-Jun-22 19:29N 54°18' W 130°21'0 0.0
2018-Jun-22 19:00N 54°18' W 130°21'0 0.0
2018-Jun-22 18:30N 54°18' W 130°21'0 0.0
2018-Jun-22 18:00N 54°18' W 130°21'0 0.0
2018-Jun-22 17:30N 54°18' W 130°21'2 4.0
2018-Jun-22 17:01N 54°19' W 130°19'0 0.3
2018-Jun-22 16:30N 54°19' W 130°19'1 2.9
2018-Jun-22 16:00N 54°18' W 130°21'1 1.4
2018-Jun-22 15:30N 54°18' W 130°21'0 0.0
2018-Jun-22 15:00N 54°18' W 130°21'0 0.0
2018-Jun-22 14:30N 54°18' W 130°21'0 0.0
2018-Jun-22 14:00N 54°18' W 130°21'0 0.0
2018-Jun-22 13:31N 54°18' W 130°21'0 0.0
2018-Jun-22 13:00N 54°18' W 130°21'0 0.0
2018-Jun-22 12:30N 54°18' W 130°21'0 0.0
2018-Jun-22 12:00N 54°18' W 130°21'0 0.0
2018-Jun-22 11:21N 54°18' W 130°21'0 0.0
2018-Jun-22 10:59N 54°18' W 130°21'0 0.0
2018-Jun-22 10:29N 54°18' W 130°21'3 7.2
2018-Jun-22 10:00N 54°14' W 130°21'917.7
2018-Jun-22 09:30N 54°15' W 130°36'815.3
2018-Jun-22 09:00N 54°17' W 130°49'0 0.7
2018-Jun-22 08:30N 54°17' W 130°49'3 5.3
2018-Jun-22 08:00N 54°16' W 130°44'714.2
2018-Jun-22 07:30N 54°14' W 130°33'713.1
2018-Jun-22 07:00N 54°16' W 130°22'2 3.3
2018-Jun-22 06:30N 54°18' W 130°21'0 0.0
2018-Jun-22 06:01N 54°18' W 130°21'0 0.0
2018-Jun-22 05:30N 54°18' W 130°21'0 0.0
2018-Jun-22 05:00N 54°18' W 130°21'0 0.0
2018-Jun-22 04:30N 54°18' W 130°21'0 0.0
2018-Jun-22 04:01N 54°18' W 130°21'0 0.0
2018-Jun-22 03:31N 54°18' W 130°21'0 0.0
2018-Jun-22 03:00N 54°18' W 130°21'0 0.0
2018-Jun-22 02:30N 54°18' W 130°21'510.5
2018-Jun-22 02:00N 54°19' W 130°30'917.9
2018-Jun-22 01:30N 54°18' W 130°45'2 4.4
2018-Jun-22 01:00N 54°16' W 130°43'917.8
2018-Jun-22 00:30N 54°14' W 130°28'611.4
2018-Jun-22 00:00N 54°18' W 130°21'0 0.0
2018-Jun-21 23:30N 54°18' W 130°21'0 0.0
2018-Jun-21 22:57N 54°18' W 130°21'0 0.0
2018-Jun-21 22:30N 54°18' W 130°21'0 0.0
2018-Jun-21 22:00N 54°18' W 130°21'0 0.0
2018-Jun-21 21:30N 54°18' W 130°21'2 3.6
2018-Jun-21 21:00N 54°19' W 130°24'714.0
2018-Jun-21 20:30N 54°18' W 130°36'917.8
2018-Jun-21 20:00N 54°19' W 130°51'0 0.4
2018-Jun-21 19:30N 54°19' W 130°51'815.8
2018-Jun-21 19:00N 54°18' W 130°37'815.0
2018-Jun-21 18:30N 54°19' W 130°24'2 4.1
2018-Jun-21 18:00N 54°18' W 130°21'0 0.0
2018-Jun-21 17:30N 54°18' W 130°21'0 0.0
2018-Jun-21 16:59N 54°18' W 130°21'0 0.0
2018-Jun-21 16:30N 54°18' W 130°21'0 0.0
2018-Jun-21 16:00N 54°18' W 130°21'0 0.0
2018-Jun-21 15:30N 54°18' W 130°21'0 0.0
2018-Jun-21 15:00N 54°18' W 130°21'0 0.0
2018-Jun-21 14:30N 54°18' W 130°21'0 0.0
2018-Jun-21 14:00N 54°18' W 130°21'0 0.0
2018-Jun-21 13:30N 54°18' W 130°21'0 0.0
2018-Jun-21 13:00N 54°18' W 130°21'0 0.0
2018-Jun-21 12:30N 54°18' W 130°21'0 0.0
2018-Jun-21 12:00N 54°18' W 130°21'0 0.0
2018-Jun-21 11:30N 54°18' W 130°21'0 0.0
2018-Jun-21 11:00N 54°18' W 130°21'0 0.0
2018-Jun-21 10:30N 54°18' W 130°21'0 0.0
2018-Jun-21 10:00N 54°18' W 130°21'0 0.0
2018-Jun-21 09:30N 54°18' W 130°21'0 0.0
2018-Jun-21 09:00N 54°18' W 130°21'0 0.0
2018-Jun-21 08:30N 54°18' W 130°21'3 6.5
2018-Jun-21 08:00N 54°14' W 130°21'816.9
2018-Jun-21 07:30N 54°16' W 130°36'917.3
2018-Jun-21 07:00N 54°19' W 130°50'511.0
2018-Jun-21 06:30N 54°20' W 130°59'816.8
2018-Jun-21 06:00N 54°17' W 130°45'918.3
2018-Jun-21 05:30N 54°14' W 130°31'612.3
2018-Jun-21 05:00N 54°18' W 130°22'0 0.4
2018-Jun-21 04:30N 54°18' W 130°21'0 0.0
2018-Jun-21 04:00N 54°18' W 130°21'0 0.0
2018-Jun-21 03:30N 54°18' W 130°21'0 0.0
2018-Jun-21 02:59N 54°18' W 130°21'0 0.0
2018-Jun-21 02:30N 54°18' W 130°21'0 0.0
2018-Jun-21 02:00N 54°18' W 130°21'0 0.0
2018-Jun-21 01:30N 54°18' W 130°21'0 0.0
2018-Jun-21 01:00N 54°18' W 130°21'0 0.0
2018-Jun-21 00:30N 54°18' W 130°21'0 0.0
2018-Jun-21 00:00N 54°18' W 130°21'0 0.0
2018-Jun-20 23:30N 54°18' W 130°21'0 0.0
2018-Jun-20 23:00N 54°18' W 130°21'0 0.0
2018-Jun-20 22:30N 54°18' W 130°21'0 0.0
2018-Jun-20 22:00N 54°18' W 130°21'0 0.0
2018-Jun-20 21:30N 54°18' W 130°21'0 0.0
2018-Jun-20 21:00N 54°18' W 130°21'0 0.0
2018-Jun-20 20:30N 54°18' W 130°21'0 0.0
2018-Jun-20 20:00N 54°18' W 130°21'0 0.0
2018-Jun-20 19:30N 54°18' W 130°21'0 0.0
2018-Jun-20 18:59N 54°18' W 130°21'0 0.0
2018-Jun-20 18:28N 54°18' W 130°21'0 0.0
2018-Jun-20 18:00N 54°18' W 130°21'2 4.1
2018-Jun-20 17:30N 54°19' W 130°19'2 3.9
2018-Jun-20 17:00N 54°19' W 130°22'612.4
2018-Jun-20 16:30N 54°18' W 130°33'815.0
2018-Jun-20 16:00N 54°19' W 130°46'2 3.6
2018-Jun-20 15:30N 54°17' W 130°47'918.0
2018-Jun-20 15:00N 54°15' W 130°33'713.1
2018-Jun-20 14:30N 54°16' W 130°22'1 2.7
2018-Jun-20 14:00N 54°18' W 130°21'0 0.0
2018-Jun-20 13:30N 54°18' W 130°21'0 0.0
2018-Jun-20 13:00N 54°18' W 130°21'0 0.0
2018-Jun-20 12:31N 54°18' W 130°21'0 0.0
2018-Jun-20 12:00N 54°18' W 130°21'0 0.0
2018-Jun-20 11:30N 54°18' W 130°21'0 0.0
2018-Jun-20 11:00N 54°18' W 130°21'0 0.0
2018-Jun-20 10:30N 54°18' W 130°21'2 3.1
2018-Jun-20 10:01N 54°19' W 130°23'714.0
2018-Jun-20 09:31N 54°18' W 130°35'917.8
2018-Jun-20 09:00N 54°18' W 130°51'510.6
2018-Jun-20 08:30N 54°16' W 130°43'917.9
2018-Jun-20 08:00N 54°14' W 130°28'5 9.1
2018-Jun-20 07:30N 54°17' W 130°22'1 1.5
2018-Jun-20 07:00N 54°18' W 130°21'0 0.0
2018-Jun-20 06:30N 54°18' W 130°21'0 0.0
2018-Jun-20 06:00N 54°18' W 130°21'0 0.0
2018-Jun-20 05:30N 54°18' W 130°21'0 0.0
2018-Jun-20 05:00N 54°18' W 130°21'4 8.2
2018-Jun-20 04:30N 54°20' W 130°27'816.5
2018-Jun-20 04:00N 54°19' W 130°41'816.6
2018-Jun-20 03:30N 54°19' W 130°55'714.8
2018-Jun-20 03:00N 54°17' W 130°43'5 9.3
2018-Jun-20 02:30N 54°16' W 130°36'714.2
2018-Jun-20 02:00N 54°17' W 130°48'1 1.4
2018-Jun-20 01:31N 54°16' W 130°48'2 3.3
2018-Jun-20 01:00N 54°17' W 130°51'2 3.8
2018-Jun-20 00:30N 54°19' W 130°53'816.2
2018-Jun-20 00:00N 54°18' W 130°39'816.2
2018-Jun-19 23:30N 54°20' W 130°26'4 7.3
2018-Jun-19 23:00N 54°18' W 130°21'0 0.0
2018-Jun-19 22:30N 54°18' W 130°21'0 0.0
2018-Jun-19 22:00N 54°18' W 130°21'0 0.0
2018-Jun-19 21:30N 54°18' W 130°21'0 0.0
2018-Jun-19 20:55N 54°18' W 130°21'0 0.0
2018-Jun-19 20:30N 54°18' W 130°21'0 0.0
2018-Jun-19 20:00N 54°18' W 130°21'0 0.0
2018-Jun-19 19:30N 54°18' W 130°21'0 0.0
2018-Jun-19 19:00N 54°18' W 130°21'0 0.0
2018-Jun-19 18:30N 54°18' W 130°21'0 0.0
2018-Jun-19 17:58N 54°18' W 130°21'0 0.3
2018-Jun-19 17:30N 54°18' W 130°21'2 3.9
2018-Jun-19 17:00N 54°19' W 130°19'0 0.1
2018-Jun-19 16:30N 54°19' W 130°19'1 2.5
2018-Jun-19 16:00N 54°18' W 130°21'1 1.8
2018-Jun-19 15:30N 54°18' W 130°21'0 0.0
2018-Jun-19 15:01N 54°18' W 130°21'0 0.0
2018-Jun-19 14:30N 54°18' W 130°21'0 0.0
2018-Jun-19 14:00N 54°18' W 130°21'0 0.0
2018-Jun-19 13:31N 54°18' W 130°21'0 0.0
2018-Jun-19 13:00N 54°18' W 130°21'0 0.0
2018-Jun-19 12:31N 54°18' W 130°21'0 0.0
2018-Jun-19 12:00N 54°18' W 130°21'0 0.0
2018-Jun-19 11:30N 54°18' W 130°21'0 0.0
2018-Jun-19 11:00N 54°18' W 130°21'0 0.0
2018-Jun-19 10:30N 54°18' W 130°21'0 0.0
2018-Jun-19 10:00N 54°18' W 130°21'0 0.0
2018-Jun-19 09:30N 54°18' W 130°21'0 0.0
2018-Jun-19 09:00N 54°18' W 130°21'0 0.0
2018-Jun-19 08:03N 54°18' W 130°21'0 0.0
2018-Jun-19 07:36N 54°18' W 130°21'0 0.0
2018-Jun-19 07:26N 54°18' W 130°21'0 0.0
2018-Jun-19 06:44N 54°18' W 130°21'0 0.0
2018-Jun-19 06:30N 54°18' W 130°21'0 0.0
2018-Jun-19 06:00N 54°18' W 130°21'4 7.7
2018-Jun-19 05:31N 54°20' W 130°26'816.9
2018-Jun-19 05:00N 54°18' W 130°41'4 7.9
2018-Jun-19 04:30N 54°16' W 130°47'714.6
2018-Jun-19 04:00N 54°15' W 130°34'713.2
2018-Jun-19 03:30N 54°14' W 130°23'4 8.4
2018-Jun-19 03:01N 54°18' W 130°21'2 3.5
2018-Jun-19 02:30N 54°19' W 130°24'611.8
2018-Jun-19 02:00N 54°18' W 130°34'917.5
2018-Jun-19 01:30N 54°18' W 130°49'4 7.9
2018-Jun-19 01:00N 54°16' W 130°43'611.5
2018-Jun-19 00:30N 54°15' W 130°33'510.4
2018-Jun-19 00:00N 54°14' W 130°25'4 7.7
2018-Jun-18 23:30N 54°17' W 130°22'1 1.4
2018-Jun-18 23:00N 54°18' W 130°21'0 0.0
2018-Jun-18 22:30N 54°18' W 130°21'0 0.0
2018-Jun-18 22:00N 54°18' W 130°21'0 0.0
2018-Jun-18 21:30N 54°18' W 130°21'0 0.0
2018-Jun-18 21:00N 54°18' W 130°21'0 0.0
2018-Jun-18 20:30N 54°18' W 130°21'0 0.0
2018-Jun-18 20:00N 54°18' W 130°21'0 0.0
2018-Jun-18 19:30N 54°18' W 130°21'0 0.0
2018-Jun-18 19:00N 54°18' W 130°21'0 0.0
2018-Jun-18 18:30N 54°18' W 130°21'0 0.0
2018-Jun-18 18:00N 54°18' W 130°21'0 0.0
2018-Jun-18 17:30N 54°18' W 130°21'0 0.0
2018-Jun-18 17:00N 54°18' W 130°21'0 0.0
2018-Jun-18 16:30N 54°18' W 130°21'0 0.1
2018-Jun-18 15:59N 54°18' W 130°21'0 0.1
2018-Jun-18 15:30N 54°18' W 130°21'0 0.0
2018-Jun-18 15:00N 54°18' W 130°21'0 0.0
2018-Jun-18 14:30N 54°18' W 130°21'0 0.0
2018-Jun-18 14:00N 54°18' W 130°21'0 0.0
2018-Jun-18 13:30N 54°18' W 130°21'3 6.6
2018-Jun-18 13:00N 54°20' W 130°26'815.8
2018-Jun-18 12:30N 54°18' W 130°39'612.1
2018-Jun-18 12:00N 54°17' W 130°49'1 2.0
2018-Jun-18 11:30N 54°16' W 130°48'1 1.4
2018-Jun-18 11:00N 54°16' W 130°49'3 5.5
2018-Jun-18 10:30N 54°18' W 130°52'3 5.7
2018-Jun-18 10:00N 54°18' W 130°47'918.1
2018-Jun-18 09:31N 54°18' W 130°32'611.0
2018-Jun-18 09:00N 54°18' W 130°41'3 5.9
2018-Jun-18 08:30N 54°15' W 130°44'917.5
2018-Jun-18 08:00N 54°13' W 130°29'612.1
2018-Jun-18 07:30N 54°18' W 130°21'0 0.1
2018-Jun-18 07:00N 54°18' W 130°21'0 0.0
2018-Jun-18 06:30N 54°18' W 130°21'0 0.0
2018-Jun-18 05:59N 54°18' W 130°21'0 0.0
2018-Jun-18 05:28N 54°18' W 130°21'1 1.1
2018-Jun-18 05:00N 54°18' W 130°22'612.4
2018-Jun-18 04:30N 54°18' W 130°33'917.6
2018-Jun-18 04:01N 54°19' W 130°47'3 5.0
2018-Jun-18 03:30N 54°18' W 130°52'917.5
2018-Jun-18 03:00N 54°17' W 130°37'1 2.5
2018-Jun-18 02:30N 54°18' W 130°37'4 8.3
2018-Jun-18 02:00N 54°17' W 130°43'917.2
2018-Jun-18 01:30N 54°14' W 130°29'611.3
2018-Jun-18 01:00N 54°18' W 130°21'0 0.2
2018-Jun-18 00:30N 54°18' W 130°21'0 0.0
2018-Jun-18 00:00N 54°18' W 130°21'0 0.0
2018-Jun-17 23:30N 54°18' W 130°21'0 0.0
2018-Jun-17 23:00N 54°18' W 130°21'0 0.0
2018-Jun-17 22:30N 54°18' W 130°21'0 0.0
2018-Jun-17 22:00N 54°18' W 130°21'0 0.0
2018-Jun-17 21:30N 54°18' W 130°21'0 0.6
2018-Jun-17 21:01N 54°17' W 130°22'611.9
2018-Jun-17 20:30N 54°15' W 130°31'918.2
2018-Jun-17 20:00N 54°17' W 130°46'1 1.6
2018-Jun-17 19:30N 54°17' W 130°47'917.6
2018-Jun-17 19:00N 54°15' W 130°33'713.1
2018-Jun-17 18:31N 54°16' W 130°22'2 3.4
2018-Jun-17 18:00N 54°18' W 130°21'2 4.2
2018-Jun-17 17:30N 54°19' W 130°19'0 0.1
2018-Jun-17 17:00N 54°19' W 130°19'2 4.1
2018-Jun-17 16:30N 54°18' W 130°21'3 6.2
2018-Jun-17 16:00N 54°20' W 130°25'815.3
2018-Jun-17 15:30N 54°19' W 130°38'817.0
2018-Jun-17 15:00N 54°19' W 130°53'2 3.0
2018-Jun-17 14:30N 54°18' W 130°51'4 8.3
2018-Jun-17 14:01N 54°14' W 130°48'0 0.4
2018-Jun-17 13:30N 54°14' W 130°48'1 2.7
2018-Jun-17 13:00N 54°16' W 130°48'4 8.0
2018-Jun-17 12:30N 54°19' W 130°52'918.1
2018-Jun-17 12:00N 54°18' W 130°36'714.8
2018-Jun-17 11:30N 54°19' W 130°24'1 1.7
2018-Jun-17 11:00N 54°19' W 130°25'815.9
2018-Jun-17 10:30N 54°18' W 130°38'612.9
2018-Jun-17 10:00N 54°17' W 130°49'2 3.8
2018-Jun-17 09:30N 54°16' W 130°47'0 0.7
2018-Jun-17 09:00N 54°16' W 130°47'0 0.7
2018-Jun-17 08:29N 54°16' W 130°48'714.2
2018-Jun-17 08:00N 54°19' W 130°58'4 7.6
2018-Jun-17 07:30N 54°19' W 130°51'917.9
2018-Jun-17 07:00N 54°18' W 130°36'714.4
2018-Jun-17 06:30N 54°19' W 130°23'2 3.3
2018-Jun-17 06:01N 54°18' W 130°21'0 0.0
2018-Jun-17 05:30N 54°18' W 130°21'2 3.7
2018-Jun-17 05:00N 54°19' W 130°24'714.6
2018-Jun-17 04:30N 54°18' W 130°36'815.4
2018-Jun-17 04:00N 54°17' W 130°49'510.8
2018-Jun-17 03:30N 54°15' W 130°41'510.2
2018-Jun-17 03:00N 54°14' W 130°33'3 6.5
2018-Jun-17 02:31N 54°14' W 130°27'3 6.8
2018-Jun-17 02:00N 54°14' W 130°21'3 6.7
2018-Jun-17 01:30N 54°18' W 130°21'0 0.0
2018-Jun-17 01:00N 54°18' W 130°21'0 0.0
2018-Jun-17 00:30N 54°18' W 130°21'0 0.0
2018-Jun-17 00:00N 54°18' W 130°21'0 0.0
2018-Jun-16 23:30N 54°18' W 130°21'0 0.0
2018-Jun-16 23:00N 54°18' W 130°21'0 0.0
2018-Jun-16 22:30N 54°18' W 130°21'0 0.0
2018-Jun-16 22:00N 54°18' W 130°21'0 0.0
2018-Jun-16 21:30N 54°18' W 130°21'0 0.0
2018-Jun-16 21:00N 54°18' W 130°21'0 0.0
2018-Jun-16 20:30N 54°18' W 130°21'0 0.0
2018-Jun-16 20:00N 54°18' W 130°21'0 0.0
2018-Jun-16 19:30N 54°18' W 130°21'0 0.0
2018-Jun-16 19:00N 54°18' W 130°21'0 0.0
2018-Jun-16 18:30N 54°18' W 130°21'0 0.0
2018-Jun-16 18:00N 54°18' W 130°21'2 4.1
2018-Jun-16 17:30N 54°19' W 130°19'2 3.1
2018-Jun-16 17:00N 54°18' W 130°21'1 1.1
2018-Jun-16 16:30N 54°18' W 130°21'0 0.0
2018-Jun-16 15:55N 54°18' W 130°21'0 0.0
2018-Jun-16 15:29N 54°18' W 130°21'0 0.0
2018-Jun-16 15:00N 54°18' W 130°21'0 0.0
2018-Jun-16 14:15N 54°18' W 130°21'0 0.0
2018-Jun-16 14:00N 54°18' W 130°21'0 0.0
2018-Jun-16 13:30N 54°18' W 130°21'0 0.0
2018-Jun-16 13:00N 54°18' W 130°21'0 0.0
2018-Jun-16 12:30N 54°18' W 130°21'0 0.0
2018-Jun-16 12:00N 54°18' W 130°21'0 0.0
2018-Jun-16 11:30N 54°18' W 130°21'0 0.0
2018-Jun-16 11:00N 54°18' W 130°21'0 0.0
2018-Jun-16 10:30N 54°18' W 130°21'0 0.0
2018-Jun-16 09:59N 54°18' W 130°21'0 0.0
2018-Jun-16 09:30N 54°18' W 130°21'0 0.0
2018-Jun-16 09:00N 54°18' W 130°21'0 0.0
2018-Jun-16 08:30N 54°18' W 130°21'0 0.0
2018-Jun-16 07:59N 54°18' W 130°21'0 0.0
2018-Jun-16 07:30N 54°18' W 130°21'0 0.0
2018-Jun-16 06:16N 54°18' W 130°21'0 0.0
2018-Jun-16 05:57N 54°18' W 130°21'510.3
2018-Jun-16 05:30N 54°20' W 130°28'917.3
2018-Jun-16 05:00N 54°18' W 130°43'2 4.4
2018-Jun-16 04:30N 54°18' W 130°39'2 3.6
2018-Jun-16 04:00N 54°18' W 130°36'815.0
2018-Jun-16 03:30N 54°17' W 130°49'611.4
2018-Jun-16 03:01N 54°15' W 130°40'612.4
2018-Jun-16 02:30N 54°12' W 130°30'713.4
2018-Jun-16 02:00N 54°17' W 130°22'0 0.8
2018-Jun-16 01:30N 54°18' W 130°21'0 0.1
2018-Jun-16 01:01N 54°18' W 130°21'510.2
2018-Jun-16 00:30N 54°19' W 130°30'817.0
2018-Jun-16 00:00N 54°17' W 130°44'4 7.2
2018-Jun-15 23:30N 54°16' W 130°39'917.9
2018-Jun-15 23:00N 54°13' W 130°24'4 8.7
2018-Jun-15 22:30N 54°18' W 130°21'0 0.0
2018-Jun-15 22:00N 54°18' W 130°21'0 0.0
2018-Jun-15 21:30N 54°18' W 130°21'0 0.0
2018-Jun-15 21:00N 54°18' W 130°21'0 0.0
2018-Jun-15 20:30N 54°18' W 130°21'2 4.1
2018-Jun-15 20:00N 54°19' W 130°19'0 0.3
2018-Jun-15 19:30N 54°19' W 130°19'611.6
2018-Jun-15 19:00N 54°14' W 130°22'917.8
2018-Jun-15 18:30N 54°16' W 130°37'918.2
2018-Jun-15 18:00N 54°19' W 130°52'1 2.1
2018-Jun-15 17:30N 54°19' W 130°50'816.5
2018-Jun-15 17:00N 54°18' W 130°36'4 7.9
2018-Jun-15 16:30N 54°19' W 130°30'713.3
2018-Jun-15 16:00N 54°18' W 130°41'4 8.7
2018-Jun-15 15:31N 54°16' W 130°47'1 2.9
2018-Jun-15 15:00N 54°15' W 130°45'2 4.3
2018-Jun-15 14:30N 54°14' W 130°47'1 2.7
2018-Jun-15 14:01N 54°12' W 130°46'0 0.0
2018-Jun-15 13:30N 54°12' W 130°46'0 0.0
2018-Jun-15 13:00N 54°12' W 130°46'0 0.0
2018-Jun-15 12:31N 54°12' W 130°46'5 9.8
2018-Jun-15 12:00N 54°17' W 130°50'2 3.4
2018-Jun-15 11:30N 54°19' W 130°50'918.5
2018-Jun-15 11:01N 54°18' W 130°34'714.4
2018-Jun-15 10:30N 54°18' W 130°21'0 0.3
2018-Jun-15 10:00N 54°18' W 130°21'0 0.0
2018-Jun-15 09:30N 54°18' W 130°21'0 0.0
2018-Jun-15 09:00N 54°18' W 130°21'0 0.0
2018-Jun-15 08:31N 54°18' W 130°21'0 0.0
2018-Jun-15 08:01N 54°18' W 130°21'0 0.0
2018-Jun-15 07:31N 54°18' W 130°21'0 0.0
2018-Jun-15 07:00N 54°18' W 130°21'0 0.0
2018-Jun-15 06:22N 54°18' W 130°21'0 0.0
2018-Jun-15 05:57N 54°18' W 130°21'0 0.0
2018-Jun-15 05:26N 54°18' W 130°21'0 0.0
2018-Jun-15 05:00N 54°18' W 130°21'0 0.0
2018-Jun-15 04:30N 54°18' W 130°21'0 0.0
2018-Jun-15 04:00N 54°18' W 130°21'1 1.1
2018-Jun-15 03:30N 54°18' W 130°22'612.0
2018-Jun-15 03:00N 54°18' W 130°32'917.6
2018-Jun-15 02:30N 54°17' W 130°47'1 1.7
2018-Jun-15 02:00N 54°17' W 130°48'0 1.0
2018-Jun-15 01:30N 54°17' W 130°48'5 9.3
2018-Jun-15 01:00N 54°12' W 130°46'0 0.0
2018-Jun-15 00:30N 54°12' W 130°46'0 0.0
2018-Jun-15 00:00N 54°12' W 130°46'0 0.9
2018-Jun-14 23:30N 54°13' W 130°46'816.9
2018-Jun-14 23:00N 54°07' W 130°36'510.4
2018-Jun-14 22:30N 54°11' W 130°29'815.6
2018-Jun-14 22:00N 54°17' W 130°22'0 0.9
2018-Jun-14 21:30N 54°18' W 130°21'0 0.0
2018-Jun-14 21:00N 54°18' W 130°21'510.3
2018-Jun-14 20:31N 54°14' W 130°28'917.7
2018-Jun-14 20:00N 54°17' W 130°42'713.3
2018-Jun-14 19:30N 54°19' W 130°53'917.1
2018-Jun-14 19:00N 54°16' W 130°39'918.2
2018-Jun-14 18:30N 54°14' W 130°24'4 6.5
2018-Jun-14 17:49N 54°18' W 130°21'0 0.0
2018-Jun-14 17:29N 54°18' W 130°21'0 0.0
2018-Jun-14 16:57N 54°18' W 130°21'0 0.0
2018-Jun-14 16:30N 54°18' W 130°21'0 0.0
2018-Jun-14 16:00N 54°18' W 130°21'0 0.0
2018-Jun-14 15:30N 54°18' W 130°21'0 0.0
2018-Jun-14 15:00N 54°18' W 130°21'0 0.0
2018-Jun-14 14:29N 54°18' W 130°21'0 0.0
2018-Jun-14 14:00N 54°18' W 130°21'0 0.0
2018-Jun-14 13:29N 54°18' W 130°21'0 0.0
2018-Jun-14 13:00N 54°18' W 130°21'0 0.0
2018-Jun-14 12:30N 54°18' W 130°21'0 0.0
2018-Jun-14 12:00N 54°18' W 130°21'0 0.0
2018-Jun-14 11:30N 54°18' W 130°21'0 0.0
2018-Jun-14 11:00N 54°18' W 130°21'0 0.0
2018-Jun-14 10:30N 54°18' W 130°21'0 0.0
2018-Jun-14 10:00N 54°18' W 130°21'0 0.0
2018-Jun-14 09:30N 54°18' W 130°21'0 0.0
2018-Jun-14 09:00N 54°18' W 130°21'0 0.0
2018-Jun-14 08:31N 54°18' W 130°21'0 0.0
2018-Jun-14 08:01N 54°18' W 130°21'0 0.0
2018-Jun-14 07:31N 54°18' W 130°21'0 0.0
2018-Jun-14 07:00N 54°18' W 130°21'0 0.0
2018-Jun-14 06:29N 54°18' W 130°21'0 0.0
2018-Jun-14 05:59N 54°18' W 130°21'0 0.0
2018-Jun-14 05:27N 54°18' W 130°21'0 0.0
2018-Jun-14 04:59N 54°18' W 130°21'0 0.0
2018-Jun-14 04:30N 54°18' W 130°21'0 0.0
2018-Jun-14 03:58N 54°18' W 130°21'0 0.0
2018-Jun-14 03:30N 54°18' W 130°21'0 0.0
2018-Jun-14 02:59N 54°18' W 130°21'0 0.0
2018-Jun-14 02:29N 54°18' W 130°21'0 0.0
2018-Jun-14 02:00N 54°18' W 130°21'0 0.0
2018-Jun-14 01:30N 54°18' W 130°21'0 0.0
2018-Jun-14 00:54N 54°18' W 130°21'0 0.0
2018-Jun-14 00:18N 54°18' W 130°21'0 0.0
2018-Jun-13 23:58N 54°18' W 130°21'0 0.0
2018-Jun-13 23:30N 54°18' W 130°21'0 0.0
2018-Jun-13 23:01N 54°18' W 130°21'0 0.0
2018-Jun-13 22:31N 54°18' W 130°21'0 0.0
2018-Jun-13 22:00N 54°18' W 130°21'0 0.0
2018-Jun-13 21:30N 54°18' W 130°21'0 0.0
2018-Jun-13 21:00N 54°18' W 130°21'2 3.6
2018-Jun-13 20:30N 54°19' W 130°20'0 0.7
2018-Jun-13 20:00N 54°19' W 130°19'3 6.4
2018-Jun-13 19:30N 54°19' W 130°24'713.5
2018-Jun-13 19:00N 54°18' W 130°36'713.4
2018-Jun-13 18:30N 54°17' W 130°47'5 9.4
2018-Jun-13 18:00N 54°16' W 130°40'713.1
2018-Jun-13 17:30N 54°14' W 130°29'5 9.4
2018-Jun-13 17:00N 54°16' W 130°22'2 3.9
2018-Jun-13 16:30N 54°18' W 130°21'0 0.0
2018-Jun-13 16:00N 54°18' W 130°21'0 0.0
2018-Jun-13 15:30N 54°18' W 130°21'0 0.0
2018-Jun-13 15:00N 54°18' W 130°21'0 0.0
2018-Jun-13 14:30N 54°18' W 130°21'0 0.0
2018-Jun-13 14:00N 54°18' W 130°21'0 0.2
2018-Jun-13 13:30N 54°18' W 130°21'611.9
2018-Jun-13 13:00N 54°18' W 130°32'917.6
2018-Jun-13 12:30N 54°19' W 130°47'5 9.8
2018-Jun-13 12:00N 54°19' W 130°55'713.9
2018-Jun-13 11:30N 54°18' W 130°43'917.5
2018-Jun-13 11:00N 54°20' W 130°28'5 9.1
2018-Jun-13 10:30N 54°18' W 130°21'0 0.0
2018-Jun-13 10:00N 54°18' W 130°21'0 0.0
2018-Jun-13 09:30N 54°18' W 130°21'0 0.0
2018-Jun-13 09:00N 54°18' W 130°21'0 0.0
2018-Jun-13 08:30N 54°18' W 130°21'0 0.0
2018-Jun-13 08:00N 54°18' W 130°21'0 0.0
2018-Jun-13 07:30N 54°18' W 130°21'0 0.0
2018-Jun-13 07:00N 54°18' W 130°21'0 0.0
2018-Jun-13 06:30N 54°18' W 130°21'0 0.0
2018-Jun-13 06:00N 54°18' W 130°21'0 0.0
2018-Jun-13 05:30N 54°18' W 130°21'0 0.0
2018-Jun-13 05:00N 54°18' W 130°21'0 0.0
2018-Jun-13 04:30N 54°18' W 130°21'0 0.0
2018-Jun-13 04:00N 54°18' W 130°21'1 1.3
2018-Jun-13 03:30N 54°18' W 130°22'613.0
2018-Jun-13 03:01N 54°18' W 130°33'917.9
2018-Jun-13 02:30N 54°19' W 130°48'3 5.4
2018-Jun-13 02:00N 54°18' W 130°53'4 7.2
2018-Jun-13 01:31N 54°17' W 130°47'612.9
2018-Jun-13 01:00N 54°15' W 130°37'917.8
2018-Jun-13 00:30N 54°15' W 130°21'3 6.2
2018-Jun-13 00:01N 54°18' W 130°21'  
Track history (hours):
 
Tides and Currents Weather Stations Pressure Air Temp Water Temp Dewpoint Dewpoint Depression Visibility Wind Speed Wind Dir Waves Ship Positions

Pacific Pilot IV

Last reported at 2018-Jun-23 00:00 UTC. Time now 2018-Jun-23 00:25 UTC.
Position N 54°13' W 130°28'.

Length 20 m.

Type: Pilot. MMSI: 316006722.

Date/timePositionNaut miles runAvg speedWind from/ knotsBaromVisibWave heightAir tempDewpointWater temp
2018-Jun-23 00:00N 54°13' W 130°28'3 5.9
2018-Jun-22 23:30N 54°13' W 130°23'5 9.7
2018-Jun-22 23:00N 54°18' W 130°21'0 0.2
2018-Jun-22 22:26N 54°18' W 130°21'0 0.0
2018-Jun-22 22:00N 54°18' W 130°21'0 0.0
2018-Jun-22 21:30N 54°18' W 130°21'0 0.0
2018-Jun-22 21:00N 54°18' W 130°21'0 0.0
2018-Jun-22 20:30N 54°18' W 130°21'0 0.0
2018-Jun-22 20:00N 54°18' W 130°21'0 0.0
2018-Jun-22 19:29N 54°18' W 130°21'0 0.0
2018-Jun-22 19:00N 54°18' W 130°21'0 0.0
2018-Jun-22 18:30N 54°18' W 130°21'0 0.0
2018-Jun-22 18:00N 54°18' W 130°21'0 0.0
2018-Jun-22 17:30N 54°18' W 130°21'2 4.0
2018-Jun-22 17:01N 54°19' W 130°19'0 0.3
2018-Jun-22 16:30N 54°19' W 130°19'1 2.9
2018-Jun-22 16:00N 54°18' W 130°21'1 1.4
2018-Jun-22 15:30N 54°18' W 130°21'0 0.0
2018-Jun-22 15:00N 54°18' W 130°21'0 0.0
2018-Jun-22 14:30N 54°18' W 130°21'0 0.0
2018-Jun-22 14:00N 54°18' W 130°21'0 0.0
2018-Jun-22 13:31N 54°18' W 130°21'0 0.0
2018-Jun-22 13:00N 54°18' W 130°21'0 0.0
2018-Jun-22 12:30N 54°18' W 130°21'0 0.0
2018-Jun-22 12:00N 54°18' W 130°21'0 0.0
2018-Jun-22 11:21N 54°18' W 130°21'0 0.0
2018-Jun-22 10:59N 54°18' W 130°21'0 0.0
2018-Jun-22 10:29N 54°18' W 130°21'3 7.2
2018-Jun-22 10:00N 54°14' W 130°21'917.7
2018-Jun-22 09:30N 54°15' W 130°36'815.3
2018-Jun-22 09:00N 54°17' W 130°49'0 0.7
2018-Jun-22 08:30N 54°17' W 130°49'3 5.3
2018-Jun-22 08:00N 54°16' W 130°44'714.2
2018-Jun-22 07:30N 54°14' W 130°33'713.1
2018-Jun-22 07:00N 54°16' W 130°22'2 3.3
2018-Jun-22 06:30N 54°18' W 130°21'0 0.0
2018-Jun-22 06:01N 54°18' W 130°21'0 0.0
2018-Jun-22 05:30N 54°18' W 130°21'0 0.0
2018-Jun-22 05:00N 54°18' W 130°21'0 0.0
2018-Jun-22 04:30N 54°18' W 130°21'0 0.0
2018-Jun-22 04:01N 54°18' W 130°21'0 0.0
2018-Jun-22 03:31N 54°18' W 130°21'0 0.0
2018-Jun-22 03:00N 54°18' W 130°21'0 0.0
2018-Jun-22 02:30N 54°18' W 130°21'510.5
2018-Jun-22 02:00N 54°19' W 130°30'917.9
2018-Jun-22 01:30N 54°18' W 130°45'2 4.4
2018-Jun-22 01:00N 54°16' W 130°43'917.8
2018-Jun-22 00:30N 54°14' W 130°28'611.4
2018-Jun-22 00:00N 54°18' W 130°21'0 0.0
2018-Jun-21 23:30N 54°18' W 130°21'0 0.0
2018-Jun-21 22:57N 54°18' W 130°21'0 0.0
2018-Jun-21 22:30N 54°18' W 130°21'0 0.0
2018-Jun-21 22:00N 54°18' W 130°21'0 0.0
2018-Jun-21 21:30N 54°18' W 130°21'2 3.6
2018-Jun-21 21:00N 54°19' W 130°24'714.0
2018-Jun-21 20:30N 54°18' W 130°36'917.8
2018-Jun-21 20:00N 54°19' W 130°51'0 0.4
2018-Jun-21 19:30N 54°19' W 130°51'815.8
2018-Jun-21 19:00N 54°18' W 130°37'815.0
2018-Jun-21 18:30N 54°19' W 130°24'2 4.1
2018-Jun-21 18:00N 54°18' W 130°21'0 0.0
2018-Jun-21 17:30N 54°18' W 130°21'0 0.0
2018-Jun-21 16:59N 54°18' W 130°21'0 0.0
2018-Jun-21 16:30N 54°18' W 130°21'0 0.0
2018-Jun-21 16:00N 54°18' W 130°21'0 0.0
2018-Jun-21 15:30N 54°18' W 130°21'0 0.0
2018-Jun-21 15:00N 54°18' W 130°21'0 0.0
2018-Jun-21 14:30N 54°18' W 130°21'0 0.0
2018-Jun-21 14:00N 54°18' W 130°21'0 0.0
2018-Jun-21 13:30N 54°18' W 130°21'0 0.0
2018-Jun-21 13:00N 54°18' W 130°21'0 0.0
2018-Jun-21 12:30N 54°18' W 130°21'0 0.0
2018-Jun-21 12:00N 54°18' W 130°21'0 0.0
2018-Jun-21 11:30N 54°18' W 130°21'0 0.0
2018-Jun-21 11:00N 54°18' W 130°21'0 0.0
2018-Jun-21 10:30N 54°18' W 130°21'0 0.0
2018-Jun-21 10:00N 54°18' W 130°21'0 0.0
2018-Jun-21 09:30N 54°18' W 130°21'0 0.0
2018-Jun-21 09:00N 54°18' W 130°21'0 0.0
2018-Jun-21 08:30N 54°18' W 130°21'3 6.5
2018-Jun-21 08:00N 54°14' W 130°21'816.9
2018-Jun-21 07:30N 54°16' W 130°36'917.3
2018-Jun-21 07:00N 54°19' W 130°50'511.0
2018-Jun-21 06:30N 54°20' W 130°59'816.8
2018-Jun-21 06:00N 54°17' W 130°45'918.3
2018-Jun-21 05:30N 54°14' W 130°31'612.3
2018-Jun-21 05:00N 54°18' W 130°22'0 0.4
2018-Jun-21 04:30N 54°18' W 130°21'0 0.0
2018-Jun-21 04:00N 54°18' W 130°21'0 0.0
2018-Jun-21 03:30N 54°18' W 130°21'0 0.0
2018-Jun-21 02:59N 54°18' W 130°21'0 0.0
2018-Jun-21 02:30N 54°18' W 130°21'0 0.0
2018-Jun-21 02:00N 54°18' W 130°21'0 0.0
2018-Jun-21 01:30N 54°18' W 130°21'0 0.0
2018-Jun-21 01:00N 54°18' W 130°21'0 0.0
2018-Jun-21 00:30N 54°18' W 130°21'0 0.0
2018-Jun-21 00:00N 54°18' W 130°21'0 0.0
2018-Jun-20 23:30N 54°18' W 130°21'0 0.0
2018-Jun-20 23:00N 54°18' W 130°21'0 0.0
2018-Jun-20 22:30N 54°18' W 130°21'0 0.0
2018-Jun-20 22:00N 54°18' W 130°21'0 0.0
2018-Jun-20 21:30N 54°18' W 130°21'0 0.0
2018-Jun-20 21:00N 54°18' W 130°21'0 0.0
2018-Jun-20 20:30N 54°18' W 130°21'0 0.0
2018-Jun-20 20:00N 54°18' W 130°21'0 0.0
2018-Jun-20 19:30N 54°18' W 130°21'0 0.0
2018-Jun-20 18:59N 54°18' W 130°21'0 0.0
2018-Jun-20 18:28N 54°18' W 130°21'0 0.0
2018-Jun-20 18:00N 54°18' W 130°21'2 4.1
2018-Jun-20 17:30N 54°19' W 130°19'2 3.9
2018-Jun-20 17:00N 54°19' W 130°22'612.4
2018-Jun-20 16:30N 54°18' W 130°33'815.0
2018-Jun-20 16:00N 54°19' W 130°46'2 3.6
2018-Jun-20 15:30N 54°17' W 130°47'918.0
2018-Jun-20 15:00N 54°15' W 130°33'713.1
2018-Jun-20 14:30N 54°16' W 130°22'1 2.7
2018-Jun-20 14:00N 54°18' W 130°21'0 0.0
2018-Jun-20 13:30N 54°18' W 130°21'0 0.0
2018-Jun-20 13:00N 54°18' W 130°21'0 0.0
2018-Jun-20 12:31N 54°18' W 130°21'0 0.0
2018-Jun-20 12:00N 54°18' W 130°21'0 0.0
2018-Jun-20 11:30N 54°18' W 130°21'0 0.0
2018-Jun-20 11:00N 54°18' W 130°21'0 0.0
2018-Jun-20 10:30N 54°18' W 130°21'2 3.1
2018-Jun-20 10:01N 54°19' W 130°23'714.0
2018-Jun-20 09:31N 54°18' W 130°35'917.8
2018-Jun-20 09:00N 54°18' W 130°51'510.6
2018-Jun-20 08:30N 54°16' W 130°43'917.9
2018-Jun-20 08:00N 54°14' W 130°28'5 9.1
2018-Jun-20 07:30N 54°17' W 130°22'1 1.5
2018-Jun-20 07:00N 54°18' W 130°21'0 0.0
2018-Jun-20 06:30N 54°18' W 130°21'0 0.0
2018-Jun-20 06:00N 54°18' W 130°21'0 0.0
2018-Jun-20 05:30N 54°18' W 130°21'0 0.0
2018-Jun-20 05:00N 54°18' W 130°21'4 8.2
2018-Jun-20 04:30N 54°20' W 130°27'816.5
2018-Jun-20 04:00N 54°19' W 130°41'816.6
2018-Jun-20 03:30N 54°19' W 130°55'714.8
2018-Jun-20 03:00N 54°17' W 130°43'5 9.3
2018-Jun-20 02:30N 54°16' W 130°36'714.2
2018-Jun-20 02:00N 54°17' W 130°48'1 1.4
2018-Jun-20 01:31N 54°16' W 130°48'2 3.3
2018-Jun-20 01:00N 54°17' W 130°51'2 3.8
2018-Jun-20 00:30N 54°19' W 130°53'816.2
2018-Jun-20 00:00N 54°18' W 130°39'816.2
2018-Jun-19 23:30N 54°20' W 130°26'4 7.3
2018-Jun-19 23:00N 54°18' W 130°21'0 0.0
2018-Jun-19 22:30N 54°18' W 130°21'0 0.0
2018-Jun-19 22:00N 54°18' W 130°21'0 0.0
2018-Jun-19 21:30N 54°18' W 130°21'0 0.0
2018-Jun-19 20:55N 54°18' W 130°21'0 0.0
2018-Jun-19 20:30N 54°18' W 130°21'0 0.0
2018-Jun-19 20:00N 54°18' W 130°21'0 0.0
2018-Jun-19 19:30N 54°18' W 130°21'0 0.0
2018-Jun-19 19:00N 54°18' W 130°21'0 0.0
2018-Jun-19 18:30N 54°18' W 130°21'0 0.0
2018-Jun-19 17:58N 54°18' W 130°21'0 0.3
2018-Jun-19 17:30N 54°18' W 130°21'2 3.9
2018-Jun-19 17:00N 54°19' W 130°19'0 0.1
2018-Jun-19 16:30N 54°19' W 130°19'1 2.5
2018-Jun-19 16:00N 54°18' W 130°21'1 1.8
2018-Jun-19 15:30N 54°18' W 130°21'0 0.0
2018-Jun-19 15:01N 54°18' W 130°21'0 0.0
2018-Jun-19 14:30N 54°18' W 130°21'0 0.0
2018-Jun-19 14:00N 54°18' W 130°21'0 0.0
2018-Jun-19 13:31N 54°18' W 130°21'0 0.0
2018-Jun-19 13:00N 54°18' W 130°21'0 0.0
2018-Jun-19 12:31N 54°18' W 130°21'0 0.0
2018-Jun-19 12:00N 54°18' W 130°21'0 0.0
2018-Jun-19 11:30N 54°18' W 130°21'0 0.0
2018-Jun-19 11:00N 54°18' W 130°21'0 0.0
2018-Jun-19 10:30N 54°18' W 130°21'0 0.0
2018-Jun-19 10:00N 54°18' W 130°21'0 0.0
2018-Jun-19 09:30N 54°18' W 130°21'0 0.0
2018-Jun-19 09:00N 54°18' W 130°21'0 0.0
2018-Jun-19 08:03N 54°18' W 130°21'0 0.0
2018-Jun-19 07:36N 54°18' W 130°21'0 0.0
2018-Jun-19 07:26N 54°18' W 130°21'0 0.0
2018-Jun-19 06:44N 54°18' W 130°21'0 0.0
2018-Jun-19 06:30N 54°18' W 130°21'0 0.0
2018-Jun-19 06:00N 54°18' W 130°21'4 7.7
2018-Jun-19 05:31N 54°20' W 130°26'816.9
2018-Jun-19 05:00N 54°18' W 130°41'4 7.9
2018-Jun-19 04:30N 54°16' W 130°47'714.6
2018-Jun-19 04:00N 54°15' W 130°34'713.2
2018-Jun-19 03:30N 54°14' W 130°23'4 8.4
2018-Jun-19 03:01N 54°18' W 130°21'2 3.5
2018-Jun-19 02:30N 54°19' W 130°24'611.8
2018-Jun-19 02:00N 54°18' W 130°34'917.5
2018-Jun-19 01:30N 54°18' W 130°49'4 7.9
2018-Jun-19 01:00N 54°16' W 130°43'611.5
2018-Jun-19 00:30N 54°15' W 130°33'510.4
2018-Jun-19 00:00N 54°14' W 130°25'4 7.7
2018-Jun-18 23:30N 54°17' W 130°22'1 1.4
2018-Jun-18 23:00N 54°18' W 130°21'0 0.0
2018-Jun-18 22:30N 54°18' W 130°21'0 0.0
2018-Jun-18 22:00N 54°18' W 130°21'0 0.0
2018-Jun-18 21:30N 54°18' W 130°21'0 0.0
2018-Jun-18 21:00N 54°18' W 130°21'0 0.0
2018-Jun-18 20:30N 54°18' W 130°21'0 0.0
2018-Jun-18 20:00N 54°18' W 130°21'0 0.0
2018-Jun-18 19:30N 54°18' W 130°21'0 0.0
2018-Jun-18 19:00N 54°18' W 130°21'0 0.0
2018-Jun-18 18:30N 54°18' W 130°21'0 0.0
2018-Jun-18 18:00N 54°18' W 130°21'0 0.0
2018-Jun-18 17:30N 54°18' W 130°21'0 0.0
2018-Jun-18 17:00N 54°18' W 130°21'0 0.0
2018-Jun-18 16:30N 54°18' W 130°21'0 0.1
2018-Jun-18 15:59N 54°18' W 130°21'0 0.1
2018-Jun-18 15:30N 54°18' W 130°21'0 0.0
2018-Jun-18 15:00N 54°18' W 130°21'0 0.0
2018-Jun-18 14:30N 54°18' W 130°21'0 0.0
2018-Jun-18 14:00N 54°18' W 130°21'0 0.0
2018-Jun-18 13:30N 54°18' W 130°21'3 6.6
2018-Jun-18 13:00N 54°20' W 130°26'815.8
2018-Jun-18 12:30N 54°18' W 130°39'612.1
2018-Jun-18 12:00N 54°17' W 130°49'1 2.0
2018-Jun-18 11:30N 54°16' W 130°48'1 1.4
2018-Jun-18 11:00N 54°16' W 130°49'3 5.5
2018-Jun-18 10:30N 54°18' W 130°52'3 5.7
2018-Jun-18 10:00N 54°18' W 130°47'918.1
2018-Jun-18 09:31N 54°18' W 130°32'611.0
2018-Jun-18 09:00N 54°18' W 130°41'3 5.9
2018-Jun-18 08:30N 54°15' W 130°44'917.5
2018-Jun-18 08:00N 54°13' W 130°29'612.1
2018-Jun-18 07:30N 54°18' W 130°21'0 0.1
2018-Jun-18 07:00N 54°18' W 130°21'0 0.0
2018-Jun-18 06:30N 54°18' W 130°21'0 0.0
2018-Jun-18 05:59N 54°18' W 130°21'0 0.0
2018-Jun-18 05:28N 54°18' W 130°21'1 1.1
2018-Jun-18 05:00N 54°18' W 130°22'612.4
2018-Jun-18 04:30N 54°18' W 130°33'917.6
2018-Jun-18 04:01N 54°19' W 130°47'3 5.0
2018-Jun-18 03:30N 54°18' W 130°52'917.5
2018-Jun-18 03:00N 54°17' W 130°37'1 2.5
2018-Jun-18 02:30N 54°18' W 130°37'4 8.3
2018-Jun-18 02:00N 54°17' W 130°43'917.2
2018-Jun-18 01:30N 54°14' W 130°29'611.3
2018-Jun-18 01:00N 54°18' W 130°21'0 0.2
2018-Jun-18 00:30N 54°18' W 130°21'0 0.0
2018-Jun-18 00:00N 54°18' W 130°21'0 0.0
2018-Jun-17 23:30N 54°18' W 130°21'0 0.0
2018-Jun-17 23:00N 54°18' W 130°21'0 0.0
2018-Jun-17 22:30N 54°18' W 130°21'0 0.0
2018-Jun-17 22:00N 54°18' W 130°21'0 0.0
2018-Jun-17 21:30N 54°18' W 130°21'0 0.6
2018-Jun-17 21:01N 54°17' W 130°22'611.9
2018-Jun-17 20:30N 54°15' W 130°31'918.2
2018-Jun-17 20:00N 54°17' W 130°46'1 1.6
2018-Jun-17 19:30N 54°17' W 130°47'917.6
2018-Jun-17 19:00N 54°15' W 130°33'713.1
2018-Jun-17 18:31N 54°16' W 130°22'2 3.4
2018-Jun-17 18:00N 54°18' W 130°21'2 4.2
2018-Jun-17 17:30N 54°19' W 130°19'0 0.1
2018-Jun-17 17:00N 54°19' W 130°19'2 4.1
2018-Jun-17 16:30N 54°18' W 130°21'3 6.2
2018-Jun-17 16:00N 54°20' W 130°25'815.3
2018-Jun-17 15:30N 54°19' W 130°38'817.0
2018-Jun-17 15:00N 54°19' W 130°53'2 3.0
2018-Jun-17 14:30N 54°18' W 130°51'4 8.3
2018-Jun-17 14:01N 54°14' W 130°48'0 0.4
2018-Jun-17 13:30N 54°14' W 130°48'1 2.7
2018-Jun-17 13:00N 54°16' W 130°48'4 8.0
2018-Jun-17 12:30N 54°19' W 130°52'918.1
2018-Jun-17 12:00N 54°18' W 130°36'714.8
2018-Jun-17 11:30N 54°19' W 130°24'1 1.7
2018-Jun-17 11:00N 54°19' W 130°25'815.9
2018-Jun-17 10:30N 54°18' W 130°38'612.9
2018-Jun-17 10:00N 54°17' W 130°49'2 3.8
2018-Jun-17 09:30N 54°16' W 130°47'0 0.7
2018-Jun-17 09:00N 54°16' W 130°47'0 0.7
2018-Jun-17 08:29N 54°16' W 130°48'714.2
2018-Jun-17 08:00N 54°19' W 130°58'4 7.6
2018-Jun-17 07:30N 54°19' W 130°51'917.9
2018-Jun-17 07:00N 54°18' W 130°36'714.4
2018-Jun-17 06:30N 54°19' W 130°23'2 3.3
2018-Jun-17 06:01N 54°18' W 130°21'0 0.0
2018-Jun-17 05:30N 54°18' W 130°21'2 3.7
2018-Jun-17 05:00N 54°19' W 130°24'714.6
2018-Jun-17 04:30N 54°18' W 130°36'815.4
2018-Jun-17 04:00N 54°17' W 130°49'510.8
2018-Jun-17 03:30N 54°15' W 130°41'510.2
2018-Jun-17 03:00N 54°14' W 130°33'3 6.5
2018-Jun-17 02:31N 54°14' W 130°27'3 6.8
2018-Jun-17 02:00N 54°14' W 130°21'3 6.7
2018-Jun-17 01:30N 54°18' W 130°21'0 0.0
2018-Jun-17 01:00N 54°18' W 130°21'0 0.0
2018-Jun-17 00:30N 54°18' W 130°21'0 0.0
2018-Jun-17 00:00N 54°18' W 130°21'0 0.0
2018-Jun-16 23:30N 54°18' W 130°21'0 0.0
2018-Jun-16 23:00N 54°18' W 130°21'0 0.0
2018-Jun-16 22:30N 54°18' W 130°21'0 0.0
2018-Jun-16 22:00N 54°18' W 130°21'0 0.0
2018-Jun-16 21:30N 54°18' W 130°21'0 0.0
2018-Jun-16 21:00N 54°18' W 130°21'0 0.0
2018-Jun-16 20:30N 54°18' W 130°21'0 0.0
2018-Jun-16 20:00N 54°18' W 130°21'0 0.0
2018-Jun-16 19:30N 54°18' W 130°21'0 0.0
2018-Jun-16 19:00N 54°18' W 130°21'0 0.0
2018-Jun-16 18:30N 54°18' W 130°21'0 0.0
2018-Jun-16 18:00N 54°18' W 130°21'2 4.1
2018-Jun-16 17:30N 54°19' W 130°19'2 3.1
2018-Jun-16 17:00N 54°18' W 130°21'1 1.1
2018-Jun-16 16:30N 54°18' W 130°21'0 0.0
2018-Jun-16 15:55N 54°18' W 130°21'0 0.0
2018-Jun-16 15:29N 54°18' W 130°21'0 0.0
2018-Jun-16 15:00N 54°18' W 130°21'0 0.0
2018-Jun-16 14:15N 54°18' W 130°21'0 0.0
2018-Jun-16 14:00N 54°18' W 130°21'0 0.0
2018-Jun-16 13:30N 54°18' W 130°21'0 0.0
2018-Jun-16 13:00N 54°18' W 130°21'0 0.0
2018-Jun-16 12:30N 54°18' W 130°21'0 0.0
2018-Jun-16 12:00N 54°18' W 130°21'0 0.0
2018-Jun-16 11:30N 54°18' W 130°21'0 0.0
2018-Jun-16 11:00N 54°18' W 130°21'0 0.0
2018-Jun-16 10:30N 54°18' W 130°21'0 0.0
2018-Jun-16 09:59N 54°18' W 130°21'0 0.0
2018-Jun-16 09:30N 54°18' W 130°21'0 0.0
2018-Jun-16 09:00N 54°18' W 130°21'0 0.0
2018-Jun-16 08:30N 54°18' W 130°21'0 0.0
2018-Jun-16 07:59N 54°18' W 130°21'0 0.0
2018-Jun-16 07:30N 54°18' W 130°21'0 0.0
2018-Jun-16 06:16N 54°18' W 130°21'0 0.0
2018-Jun-16 05:57N 54°18' W 130°21'510.3
2018-Jun-16 05:30N 54°20' W 130°28'917.3
2018-Jun-16 05:00N 54°18' W 130°43'2 4.4
2018-Jun-16 04:30N 54°18' W 130°39'2 3.6
2018-Jun-16 04:00N 54°18' W 130°36'815.0
2018-Jun-16 03:30N 54°17' W 130°49'611.4
2018-Jun-16 03:01N 54°15' W 130°40'612.4
2018-Jun-16 02:30N 54°12' W 130°30'713.4
2018-Jun-16 02:00N 54°17' W 130°22'0 0.8
2018-Jun-16 01:30N 54°18' W 130°21'0 0.1
2018-Jun-16 01:01N 54°18' W 130°21'510.2
2018-Jun-16 00:30N 54°19' W 130°30'817.0
2018-Jun-16 00:00N 54°17' W 130°44'4 7.2
2018-Jun-15 23:30N 54°16' W 130°39'917.9
2018-Jun-15 23:00N 54°13' W 130°24'4 8.7
2018-Jun-15 22:30N 54°18' W 130°21'0 0.0
2018-Jun-15 22:00N 54°18' W 130°21'0 0.0
2018-Jun-15 21:30N 54°18' W 130°21'0 0.0
2018-Jun-15 21:00N 54°18' W 130°21'0 0.0
2018-Jun-15 20:30N 54°18' W 130°21'2 4.1
2018-Jun-15 20:00N 54°19' W 130°19'0 0.3
2018-Jun-15 19:30N 54°19' W 130°19'611.6
2018-Jun-15 19:00N 54°14' W 130°22'917.8
2018-Jun-15 18:30N 54°16' W 130°37'918.2
2018-Jun-15 18:00N 54°19' W 130°52'1 2.1
2018-Jun-15 17:30N 54°19' W 130°50'816.5
2018-Jun-15 17:00N 54°18' W 130°36'4 7.9
2018-Jun-15 16:30N 54°19' W 130°30'713.3
2018-Jun-15 16:00N 54°18' W 130°41'4 8.7
2018-Jun-15 15:31N 54°16' W 130°47'1 2.9
2018-Jun-15 15:00N 54°15' W 130°45'2 4.3
2018-Jun-15 14:30N 54°14' W 130°47'1 2.7
2018-Jun-15 14:01N 54°12' W 130°46'0 0.0
2018-Jun-15 13:30N 54°12' W 130°46'0 0.0
2018-Jun-15 13:00N 54°12' W 130°46'0 0.0
2018-Jun-15 12:31N 54°12' W 130°46'5 9.8
2018-Jun-15 12:00N 54°17' W 130°50'2 3.4
2018-Jun-15 11:30N 54°19' W 130°50'918.5
2018-Jun-15 11:01N 54°18' W 130°34'714.4
2018-Jun-15 10:30N 54°18' W 130°21'0 0.3
2018-Jun-15 10:00N 54°18' W 130°21'0 0.0
2018-Jun-15 09:30N 54°18' W 130°21'0 0.0
2018-Jun-15 09:00N 54°18' W 130°21'0 0.0
2018-Jun-15 08:31N 54°18' W 130°21'0 0.0
2018-Jun-15 08:01N 54°18' W 130°21'0 0.0
2018-Jun-15 07:31N 54°18' W 130°21'0 0.0
2018-Jun-15 07:00N 54°18' W 130°21'0 0.0
2018-Jun-15 06:22N 54°18' W 130°21'0 0.0
2018-Jun-15 05:57N 54°18' W 130°21'0 0.0
2018-Jun-15 05:26N 54°18' W 130°21'0 0.0
2018-Jun-15 05:00N 54°18' W 130°21'0 0.0
2018-Jun-15 04:30N 54°18' W 130°21'0 0.0
2018-Jun-15 04:00N 54°18' W 130°21'1 1.1
2018-Jun-15 03:30N 54°18' W 130°22'612.0
2018-Jun-15 03:00N 54°18' W 130°32'917.6
2018-Jun-15 02:30N 54°17' W 130°47'1 1.7
2018-Jun-15 02:00N 54°17' W 130°48'0 1.0
2018-Jun-15 01:30N 54°17' W 130°48'5 9.3
2018-Jun-15 01:00N 54°12' W 130°46'0 0.0
2018-Jun-15 00:30N 54°12' W 130°46'0 0.0
2018-Jun-15 00:00N 54°12' W 130°46'0 0.9
2018-Jun-14 23:30N 54°13' W 130°46'816.9
2018-Jun-14 23:00N 54°07' W 130°36'510.4
2018-Jun-14 22:30N 54°11' W 130°29'815.6
2018-Jun-14 22:00N 54°17' W 130°22'0 0.9
2018-Jun-14 21:30N 54°18' W 130°21'0 0.0
2018-Jun-14 21:00N 54°18' W 130°21'510.3
2018-Jun-14 20:31N 54°14' W 130°28'917.7
2018-Jun-14 20:00N 54°17' W 130°42'713.3
2018-Jun-14 19:30N 54°19' W 130°53'917.1
2018-Jun-14 19:00N 54°16' W 130°39'918.2
2018-Jun-14 18:30N 54°14' W 130°24'4 6.5
2018-Jun-14 17:49N 54°18' W 130°21'0 0.0
2018-Jun-14 17:29N 54°18' W 130°21'0 0.0
2018-Jun-14 16:57N 54°18' W 130°21'0 0.0
2018-Jun-14 16:30N 54°18' W 130°21'0 0.0
2018-Jun-14 16:00N 54°18' W 130°21'0 0.0
2018-Jun-14 15:30N 54°18' W 130°21'0 0.0
2018-Jun-14 15:00N 54°18' W 130°21'0 0.0
2018-Jun-14 14:29N 54°18' W 130°21'0 0.0
2018-Jun-14 14:00N 54°18' W 130°21'0 0.0
2018-Jun-14 13:29N 54°18' W 130°21'0 0.0
2018-Jun-14 13:00N 54°18' W 130°21'0 0.0
2018-Jun-14 12:30N 54°18' W 130°21'0 0.0
2018-Jun-14 12:00N 54°18' W 130°21'0 0.0
2018-Jun-14 11:30N 54°18' W 130°21'0 0.0
2018-Jun-14 11:00N 54°18' W 130°21'0 0.0
2018-Jun-14 10:30N 54°18' W 130°21'0 0.0
2018-Jun-14 10:00N 54°18' W 130°21'0 0.0
2018-Jun-14 09:30N 54°18' W 130°21'0 0.0
2018-Jun-14 09:00N 54°18' W 130°21'0 0.0
2018-Jun-14 08:31N 54°18' W 130°21'0 0.0
2018-Jun-14 08:01N 54°18' W 130°21'0 0.0
2018-Jun-14 07:31N 54°18' W 130°21'0 0.0
2018-Jun-14 07:00N 54°18' W 130°21'0 0.0
2018-Jun-14 06:29N 54°18' W 130°21'0 0.0
2018-Jun-14 05:59N 54°18' W 130°21'0 0.0
2018-Jun-14 05:27N 54°18' W 130°21'0 0.0
2018-Jun-14 04:59N 54°18' W 130°21'0 0.0
2018-Jun-14 04:30N 54°18' W 130°21'0 0.0
2018-Jun-14 03:58N 54°18' W 130°21'0 0.0
2018-Jun-14 03:30N 54°18' W 130°21'0 0.0
2018-Jun-14 02:59N 54°18' W 130°21'0 0.0
2018-Jun-14 02:29N 54°18' W 130°21'0 0.0
2018-Jun-14 02:00N 54°18' W 130°21'0 0.0
2018-Jun-14 01:30N 54°18' W 130°21'0 0.0
2018-Jun-14 00:54N 54°18' W 130°21'0 0.0
2018-Jun-14 00:18N 54°18' W 130°21'0 0.0
2018-Jun-13 23:58N 54°18' W 130°21'0 0.0
2018-Jun-13 23:30N 54°18' W 130°21'0 0.0
2018-Jun-13 23:01N 54°18' W 130°21'0 0.0
2018-Jun-13 22:31N 54°18' W 130°21'0 0.0
2018-Jun-13 22:00N 54°18' W 130°21'0 0.0
2018-Jun-13 21:30N 54°18' W 130°21'0 0.0
2018-Jun-13 21:00N 54°18' W 130°21'2 3.6
2018-Jun-13 20:30N 54°19' W 130°20'0 0.7
2018-Jun-13 20:00N 54°19' W 130°19'3 6.4
2018-Jun-13 19:30N 54°19' W 130°24'713.5
2018-Jun-13 19:00N 54°18' W 130°36'713.4
2018-Jun-13 18:30N 54°17' W 130°47'5 9.4
2018-Jun-13 18:00N 54°16' W 130°40'713.1
2018-Jun-13 17:30N 54°14' W 130°29'5 9.4
2018-Jun-13 17:00N 54°16' W 130°22'2 3.9
2018-Jun-13 16:30N 54°18' W 130°21'0 0.0
2018-Jun-13 16:00N 54°18' W 130°21'0 0.0
2018-Jun-13 15:30N 54°18' W 130°21'0 0.0
2018-Jun-13 15:00N 54°18' W 130°21'0 0.0
2018-Jun-13 14:30N 54°18' W 130°21'0 0.0
2018-Jun-13 14:00N 54°18' W 130°21'0 0.2
2018-Jun-13 13:30N 54°18' W 130°21'611.9
2018-Jun-13 13:00N 54°18' W 130°32'917.6
2018-Jun-13 12:30N 54°19' W 130°47'5 9.8
2018-Jun-13 12:00N 54°19' W 130°55'713.9
2018-Jun-13 11:30N 54°18' W 130°43'917.5
2018-Jun-13 11:00N 54°20' W 130°28'5 9.1
2018-Jun-13 10:30N 54°18' W 130°21'0 0.0
2018-Jun-13 10:00N 54°18' W 130°21'0 0.0
2018-Jun-13 09:30N 54°18' W 130°21'0 0.0
2018-Jun-13 09:00N 54°18' W 130°21'0 0.0
2018-Jun-13 08:30N 54°18' W 130°21'0 0.0
2018-Jun-13 08:00N 54°18' W 130°21'0 0.0
2018-Jun-13 07:30N 54°18' W 130°21'0 0.0
2018-Jun-13 07:00N 54°18' W 130°21'0 0.0
2018-Jun-13 06:30N 54°18' W 130°21'0 0.0
2018-Jun-13 06:00N 54°18' W 130°21'0 0.0
2018-Jun-13 05:30N 54°18' W 130°21'0 0.0
2018-Jun-13 05:00N 54°18' W 130°21'0 0.0
2018-Jun-13 04:30N 54°18' W 130°21'0 0.0
2018-Jun-13 04:00N 54°18' W 130°21'1 1.3
2018-Jun-13 03:30N 54°18' W 130°22'613.0
2018-Jun-13 03:01N 54°18' W 130°33'917.9
2018-Jun-13 02:30N 54°19' W 130°48'3 5.4
2018-Jun-13 02:00N 54°18' W 130°53'4 7.2
2018-Jun-13 01:31N 54°17' W 130°47'612.9
2018-Jun-13 01:00N 54°15' W 130°37'917.8
2018-Jun-13 00:30N 54°15' W 130°21'3 6.2
2018-Jun-13 00:01N 54°18' W 130°21'  

Dump ship's entire track history